Time;durP1;ratioP1;P1;durP2;ratioP2;P2;SDS_P1;SDS_P2;PMS_P1;PMS_P2;Temp;Humidity;BMP_temperature;BMP_pressure;BME280_temperature;BME280_humidity;BME280_pressure;Samples;Min_cycle;Max_cycle;Signal;HPM_P1;HPM_P2
2022/04/02 00:02:02;;;;;;;1.40;1.38;;;19.80;48.20;;;;;;5032376;28;20195;-73
2022/04/02 00:04:28;;;;;;;1.85;1.75;;;19.80;48.20;;;;;;5015846;28;20195;-73
2022/04/02 00:06:54;;;;;;;1.40;1.30;;;19.80;48.20;;;;;;5033373;28;20283;-73
2022/04/02 00:09:21;;;;;;;1.40;1.30;;;19.80;48.20;;;;;;5033041;28;20188;-73
2022/04/02 00:11:47;;;;;;;1.80;1.70;;;19.80;48.20;;;;;;5033188;28;20203;-72
2022/04/02 00:14:13;;;;;;;1.20;1.20;;;19.80;48.20;;;;;;5032084;28;20293;-72
2022/04/02 00:16:40;;;;;;;1.65;1.55;;;19.80;48.20;;;;;;5015419;28;20241;-72
2022/04/02 00:19:07;;;;;;;1.67;1.58;;;19.80;48.20;;;;;;5032590;28;20195;-73
2022/04/02 00:21:33;;;;;;;2.00;1.90;;;19.80;48.20;;;;;;5032863;28;20306;-73
2022/04/02 00:23:59;;;;;;;1.42;1.40;;;19.80;48.20;;;;;;5031682;28;20192;-72
2022/04/02 00:26:25;;;;;;;1.88;1.77;;;19.80;48.20;;;;;;5015181;28;20187;-72
2022/04/02 00:28:52;;;;;;;1.30;1.30;;;19.80;48.20;;;;;;5014837;28;20245;-72
2022/04/02 00:31:20;;;;;;;2.00;1.90;;;19.80;48.20;;;;;;5031683;28;20190;-72
2022/04/02 00:33:48;;;;;;;1.85;1.75;;;19.80;48.20;;;;;;5014989;28;20203;-72
2022/04/02 00:36:18;;;;;;;1.70;1.60;;;19.80;48.20;;;;;;5015076;28;20226;-72
2022/04/02 00:38:43;;;;;;;1.85;1.75;;;19.80;48.20;;;;;;5031272;28;20245;-72
2022/04/02 00:41:10;;;;;;;1.33;1.33;;;19.80;48.20;;;;;;5047400;28;20215;-72
2022/04/02 00:43:39;;;;;;;1.73;1.63;;;19.80;48.10;;;;;;5031761;28;20210;-72
2022/04/02 00:46:12;;;;;;;1.45;1.40;;;19.80;48.20;;;;;;5031387;28;20264;-72
2022/04/02 00:48:39;;;;;;;1.40;1.30;;;19.80;48.20;;;;;;5030971;28;20183;-72
2022/04/02 00:51:07;;;;;;;1.75;1.65;;;19.80;48.20;;;;;;5031161;28;20218;-71
2022/04/02 00:53:39;;;;;;;1.42;1.33;;;19.80;48.10;;;;;;5030909;28;20272;-71
2022/04/02 00:56:06;;;;;;;1.77;1.67;;;19.80;48.10;;;;;;5031177;28;20202;-73
2022/04/02 00:58:32;;;;;;;1.60;1.50;;;19.80;48.10;;;;;;5031218;28;20187;-73
2022/04/02 01:01:00;;;;;;;1.88;1.77;;;19.80;48.10;;;;;;5015006;28;20197;-73
2022/04/02 01:03:35;;;;;;;1.77;1.67;;;19.80;48.10;;;;;;5030105;28;20214;-73
2022/04/02 01:06:02;;;;;;;1.67;1.58;;;19.80;48.10;;;;;;5022550;28;20645;-73
2022/04/02 01:08:30;;;;;;;1.80;1.70;;;19.80;48.10;;;;;;5014730;28;20671;-73
2022/04/02 01:11:00;;;;;;;1.85;1.75;;;19.80;48.10;;;;;;5014798;28;20183;-73
2022/04/02 01:13:30;;;;;;;1.52;1.42;;;19.80;48.10;;;;;;5032075;28;20290;-74
2022/04/02 01:15:56;;;;;;;1.70;1.60;;;19.80;48.10;;;;;;5014347;28;20183;-73
2022/04/02 01:18:24;;;;;;;1.67;1.58;;;19.80;48.10;;;;;;5014169;28;20202;-73
2022/04/02 01:20:53;;;;;;;1.58;1.48;;;19.80;48.10;;;;;;5014558;28;20179;-73
2022/04/02 01:23:28;;;;;;;1.65;1.55;;;19.80;48.10;;;;;;5014458;28;20246;-73
2022/04/02 01:26:01;;;;;;;1.67;1.58;;;19.80;48.10;;;;;;5030582;28;20272;-73
2022/04/02 01:28:34;;;;;;;1.50;1.40;;;19.80;48.10;;;;;;5014416;28;20187;-74
2022/04/02 01:31:05;;;;;;;1.20;1.20;;;19.80;48.10;;;;;;5030642;28;20187;-73
2022/04/02 01:33:31;;;;;;;1.45;1.35;;;19.80;48.10;;;;;;5013983;28;20282;-73
2022/04/02 01:36:05;;;;;;;1.70;1.60;;;19.80;48.10;;;;;;5030183;28;20171;-72
2022/04/02 01:38:37;;;;;;;2.00;1.90;;;19.80;48.60;;;;;;4994767;28;20210;-73
2022/04/02 01:41:05;;;;;;;1.80;1.70;;;19.80;48.00;;;;;;5013470;28;20306;-72
2022/04/02 01:43:36;;;;;;;1.85;1.75;;;19.80;48.00;;;;;;5030680;28;20685;-72
2022/04/02 01:46:04;;;;;;;1.58;1.48;;;19.80;48.10;;;;;;5047083;28;20240;-72
2022/04/02 01:48:32;;;;;;;2.03;1.92;;;19.80;48.10;;;;;;5029811;28;20187;-73
2022/04/02 01:51:02;;;;;;;1.70;1.60;;;19.80;48.00;;;;;;5030284;28;20210;-72
2022/04/02 01:53:30;;;;;;;1.88;1.77;;;19.80;48.10;;;;;;5013470;28;20214;-73
2022/04/02 01:55:56;;;;;;;1.70;1.60;;;19.80;48.00;;;;;;5042167;28;20588;-72
2022/04/02 01:58:34;;;;;;;1.65;1.55;;;19.80;48.10;;;;;;5031113;28;20186;-73
2022/04/02 02:01:04;;;;;;;1.58;1.50;;;19.80;48.00;;;;;;5050255;28;20664;-73
2022/04/02 02:03:31;;;;;;;1.60;1.50;;;19.80;48.00;;;;;;5009711;28;20303;-73
2022/04/02 02:05:57;;;;;;;1.42;1.33;;;19.80;48.00;;;;;;5013160;28;20188;-72
2022/04/02 02:08:24;;;;;;;1.60;1.50;;;19.80;48.00;;;;;;5028961;23;20315;-69
2022/04/02 02:10:56;;;;;;;1.55;1.45;;;19.80;48.00;;;;;;5028206;28;20176;-69
2022/04/02 02:13:42;;;;;;;2.30;2.20;;;19.80;48.00;;;;;;5011278;28;20211;-69
2022/04/02 02:16:12;;;;;;;2.38;2.25;;;19.80;48.00;;;;;;4996002;28;20168;-69
2022/04/02 02:18:38;;;;;;;1.65;1.55;;;19.80;48.00;;;;;;5011367;28;20196;-69
2022/04/02 02:21:04;;;;;;;1.88;1.77;;;19.80;48.00;;;;;;4995200;28;20176;-69
2022/04/02 02:23:30;;;;;;;1.65;1.55;;;19.80;48.00;;;;;;5011877;28;20241;-69
2022/04/02 02:25:55;;;;;;;2.10;2.00;;;19.80;48.00;;;;;;5011740;28;20180;-68
2022/04/02 02:28:24;;;;;;;2.10;2.00;;;19.80;47.90;;;;;;5011892;28;20211;-69
2022/04/02 02:30:52;;;;;;;1.58;1.48;;;19.80;48.00;;;;;;5011423;28;20184;-70
2022/04/02 02:36:03;;;;;;;1.85;1.75;;;19.80;48.00;;;;;;5032021;28;20210;-69
2022/04/02 02:38:49;;;;;;;1.70;1.60;;;19.80;48.00;;;;;;5031685;28;20206;-69
2022/04/02 02:41:21;;;;;;;1.60;1.50;;;19.80;48.00;;;;;;5030961;28;20167;-69
2022/04/02 02:43:51;;;;;;;1.70;1.60;;;19.80;48.00;;;;;;5019289;28;20181;-70
2022/04/02 02:46:26;;;;;;;2.13;2.03;;;19.80;47.90;;;;;;5008005;28;20191;-69
2022/04/02 02:48:59;;;;;;;2.30;2.20;;;19.80;48.00;;;;;;5007985;28;20268;-69
2022/04/02 02:51:25;;;;;;;1.98;1.77;;;19.80;48.00;;;;;;5021553;28;20749;-69
2022/04/02 02:53:51;;;;;;;2.58;2.47;;;19.80;47.90;;;;;;4996096;28;20212;-69
2022/04/02 02:56:18;;;;;;;2.33;2.22;;;19.80;47.90;;;;;;5009274;28;20183;-70
2022/04/02 02:58:47;;;;;;;1.77;1.67;;;19.80;47.90;;;;;;5026624;28;20191;-69
2022/04/02 03:01:14;;;;;;;2.10;2.00;;;19.80;48.00;;;;;;5035114;28;20198;-68
2022/04/02 03:03:40;;;;;;;1.80;1.70;;;19.80;48.00;;;;;;5016371;28;20180;-69
2022/04/02 03:06:11;;;;;;;2.10;1.85;;;19.80;47.90;;;;;;5027049;28;20262;-69
2022/04/02 03:08:41;;;;;;;1.75;1.65;;;19.80;48.00;;;;;;5018480;28;20206;-69
2022/04/02 03:11:07;;;;;;;1.70;1.60;;;19.80;48.00;;;;;;5018420;28;20175;-69
2022/04/02 03:13:37;;;;;;;1.42;1.38;;;19.80;47.90;;;;;;5018253;28;20207;-69
2022/04/02 03:16:13;;;;;;;1.75;1.65;;;19.80;47.90;;;;;;5034785;28;20201;-69
2022/04/02 03:18:53;;;;;;;1.75;1.65;;;19.90;48.00;;;;;;5031047;28;20245;-70
2022/04/02 03:21:20;;;;;;;2.00;1.90;;;19.80;47.90;;;;;;5022528;28;20164;-70
2022/04/02 03:23:47;;;;;;;1.67;1.58;;;19.80;47.90;;;;;;5022207;28;20210;-69
2022/04/02 03:26:15;;;;;;;2.00;1.90;;;19.90;47.90;;;;;;5022307;28;20188;-69
2022/04/02 03:28:43;;;;;;;2.13;2.00;;;19.80;47.90;;;;;;5031769;28;20222;-69
2022/04/02 03:31:09;;;;;;;1.70;1.60;;;19.80;47.90;;;;;;5008858;28;20191;-69
2022/04/02 03:33:38;;;;;;;1.77;1.67;;;19.80;47.90;;;;;;5047092;28;20199;-69
2022/04/02 03:36:05;;;;;;;1.60;1.50;;;19.80;47.90;;;;;;5028585;28;20203;-69
2022/04/02 03:38:31;;;;;;;1.90;1.80;;;19.90;47.90;;;;;;5030057;28;20207;-69
2022/04/02 03:41:04;;;;;;;1.60;1.50;;;19.80;47.80;;;;;;5018300;28;20175;-69
2022/04/02 03:43:32;;;;;;;1.60;1.50;;;19.80;47.80;;;;;;5034108;28;20187;-69
2022/04/02 03:48:45;;;;;;;1.40;1.30;;;19.80;47.90;;;;;;5033569;28;20272;-69
2022/04/02 03:51:11;;;;;;;1.48;1.38;;;19.80;47.80;;;;;;5017411;28;20237;-70
2022/04/02 03:53:37;;;;;;;1.60;1.50;;;19.90;47.90;;;;;;5033565;28;20211;-69
2022/04/02 03:56:04;;;;;;;1.70;1.60;;;19.90;47.80;;;;;;5034069;28;20262;-69
2022/04/02 03:58:38;;;;;;;1.55;1.45;;;19.80;47.70;;;;;;5033461;28;20198;-69
2022/04/02 04:01:05;;;;;;;1.85;1.75;;;19.90;47.80;;;;;;5034182;28;20183;-69
2022/04/02 04:03:33;;;;;;;1.50;1.40;;;19.80;47.80;;;;;;5033159;28;20171;-69
2022/04/02 04:06:00;;;;;;;2.08;1.73;;;19.80;47.80;;;;;;5017005;28;20228;-69
2022/04/02 04:08:26;;;;;;;1.80;1.70;;;19.80;47.80;;;;;;5018043;28;20242;-69
2022/04/02 04:10:53;;;;;;;2.13;2.00;;;19.80;47.80;;;;;;5014019;28;20184;-69
2022/04/02 04:13:20;;;;;;;2.00;1.75;;;19.80;47.70;;;;;;5013509;28;20211;-69
2022/04/02 04:15:48;;;;;;;2.00;1.90;;;19.80;47.70;;;;;;5013809;28;20184;-69
2022/04/02 04:18:14;;;;;;;1.85;1.75;;;19.80;47.70;;;;;;5009758;28;20197;-69
2022/04/02 04:20:41;;;;;;;1.70;1.60;;;19.80;47.70;;;;;;5022194;28;20666;-69
2022/04/02 04:23:12;;;;;;;1.85;1.75;;;19.80;47.70;;;;;;5017631;28;20187;-69
2022/04/02 04:25:39;;;;;;;1.60;1.50;;;19.80;47.70;;;;;;5049765;28;20175;-69
2022/04/02 04:28:06;;;;;;;1.80;1.70;;;19.80;47.70;;;;;;5033045;28;20300;-69
2022/04/02 04:30:32;;;;;;;1.60;1.50;;;19.80;47.70;;;;;;5033399;28;20186;-69
2022/04/02 04:32:58;;;;;;;1.67;1.58;;;19.80;47.70;;;;;;5026927;28;20183;-69
2022/04/02 04:35:25;;;;;;;1.67;1.58;;;19.80;47.70;;;;;;5018501;28;20179;-69
2022/04/02 04:37:52;;;;;;;1.80;1.70;;;19.80;47.60;;;;;;5012993;28;20208;-69
2022/04/02 04:40:24;;;;;;;2.00;1.48;;;19.80;47.60;;;;;;5014130;28;20262;-69
2022/04/02 04:42:51;;;;;;;1.58;1.48;;;19.80;47.60;;;;;;5013162;28;20210;-69
2022/04/02 04:45:23;;;;;;;1.60;1.50;;;19.80;47.60;;;;;;5013309;28;20246;-69
2022/04/02 04:47:51;;;;;;;2.10;1.95;;;19.90;47.70;;;;;;5012908;28;20204;-69
2022/04/02 04:50:20;;;;;;;2.00;1.90;;;19.90;47.70;;;;;;5013392;28;20191;-69
2022/04/02 04:52:49;;;;;;;2.10;1.90;;;19.80;47.60;;;;;;5021204;28;20179;-69
2022/04/02 04:55:15;;;;;;;3.35;2.20;;;19.80;47.60;;;;;;5026294;28;20223;-69
2022/04/02 04:57:41;;;;;;;2.17;1.80;;;19.80;47.60;;;;;;5015884;28;20216;-69
2022/04/02 05:00:20;;;;;;;1.95;1.85;;;19.80;47.60;;;;;;5017973;28;20171;-70
2022/04/02 05:02:47;;;;;;;1.75;1.50;;;19.80;47.60;;;;;;5032644;28;20229;-69
2022/04/02 05:05:15;;;;;;;1.77;1.67;;;19.80;47.60;;;;;;5032592;28;20183;-70
2022/04/02 05:07:45;;;;;;;2.05;1.73;;;19.80;47.60;;;;;;5032387;28;20190;-69
2022/04/02 05:10:12;;;;;;;1.80;1.70;;;19.80;47.60;;;;;;5032693;28;20270;-69
2022/04/02 05:12:39;;;;;;;2.30;2.05;;;19.80;47.50;;;;;;5011093;28;20184;-69
2022/04/02 05:15:08;;;;;;;1.70;1.60;;;19.80;47.60;;;;;;5024864;28;20682;-70
2022/04/02 05:17:37;;;;;;;2.63;1.75;;;19.80;47.50;;;;;;5031611;28;20270;-69
2022/04/02 05:20:07;;;;;;;2.05;1.85;;;19.80;47.50;;;;;;5031952;28;20210;-69
2022/04/02 05:22:35;;;;;;;1.70;1.60;;;19.80;47.50;;;;;;5015969;28;20194;-67
2022/04/02 05:25:01;;;;;;;1.67;1.58;;;19.80;47.50;;;;;;5011198;28;20191;-69
2022/04/02 05:27:28;;;;;;;1.75;1.65;;;19.80;47.40;;;;;;5032179;28;20269;-69
2022/04/02 05:29:55;;;;;;;1.98;1.88;;;19.80;47.50;;;;;;5031767;28;20191;-69
2022/04/02 05:32:21;;;;;;;1.73;1.63;;;19.90;47.50;;;;;;5032018;28;20195;-69
2022/04/02 05:34:47;;;;;;;1.95;1.83;;;19.80;47.40;;;;;;5015562;28;20207;-69
2022/04/02 05:37:14;;;;;;;2.30;2.10;;;19.80;47.40;;;;;;5018070;28;20197;-69
2022/04/02 05:39:43;;;;;;;1.98;1.88;;;19.80;47.80;;;;;;5011102;28;20409;-70
2022/04/02 05:42:11;;;;;;;1.70;1.60;;;19.80;47.40;;;;;;5028414;28;20187;-70
2022/04/02 05:44:37;;;;;;;2.00;1.70;;;19.80;47.40;;;;;;5011963;28;20180;-70
2022/04/02 05:47:03;;;;;;;1.85;1.67;;;19.90;47.40;;;;;;5039999;28;20187;-70
2022/04/02 05:49:29;;;;;;;2.00;1.75;;;19.80;47.40;;;;;;5031593;28;20290;-69
2022/04/02 05:51:55;;;;;;;1.90;1.80;;;19.80;47.40;;;;;;5025985;28;20424;-70
2022/04/02 05:54:20;;;;;;;1.88;1.77;;;19.90;47.40;;;;;;5000957;28;20226;-69
2022/04/02 05:56:46;;;;;;;2.10;1.90;;;19.90;47.40;;;;;;5011319;28;20188;-69
2022/04/02 05:59:12;;;;;;;2.10;1.90;;;19.80;47.30;;;;;;5012899;28;20237;-69
2022/04/02 06:01:38;;;;;;;1.60;1.50;;;19.80;47.30;;;;;;5011573;28;20202;-70
2022/04/02 06:04:04;;;;;;;1.60;1.50;;;19.90;47.40;;;;;;5011762;28;20188;-69
2022/04/02 06:06:30;;;;;;;2.08;1.80;;;19.90;47.40;;;;;;5011167;28;20199;-67
2022/04/02 06:08:57;;;;;;;1.55;1.45;;;19.90;48.00;;;;;;4998029;28;20721;-70
2022/04/02 06:11:24;;;;;;;1.95;1.75;;;19.90;47.40;;;;;;5029584;28;20191;-70
2022/04/02 06:13:50;;;;;;;1.90;1.77;;;19.90;47.40;;;;;;5011646;28;20702;-70
2022/04/02 06:16:16;;;;;;;1.60;1.50;;;19.90;47.40;;;;;;4999963;28;20183;-70
2022/04/02 06:18:43;;;;;;;1.70;1.60;;;19.90;47.30;;;;;;5028317;28;20218;-69
2022/04/02 06:21:11;;;;;;;1.77;1.67;;;19.90;47.30;;;;;;5009857;28;20181;-69
2022/04/02 06:23:37;;;;;;;2.00;1.90;;;19.90;47.40;;;;;;5004541;28;20195;-69
2022/04/02 06:26:03;;;;;;;1.70;1.60;;;19.90;47.30;;;;;;4997755;28;20188;-69
2022/04/02 06:28:29;;;;;;;1.90;1.80;;;19.90;47.40;;;;;;5010435;28;20208;-70
2022/04/02 06:30:56;;;;;;;1.70;1.60;;;19.90;47.30;;;;;;5011301;28;20184;-69
2022/04/02 06:33:24;;;;;;;1.80;1.70;;;19.90;47.30;;;;;;5010770;28;20207;-69
2022/04/02 06:35:50;;;;;;;1.83;1.73;;;19.90;47.30;;;;;;5011026;28;20229;-69
2022/04/02 06:38:17;;;;;;;1.67;1.58;;;19.90;47.30;;;;;;5007908;28;20297;-69
2022/04/02 06:40:42;;;;;;;1.67;1.58;;;19.90;47.30;;;;;;5020431;28;20245;-70
2022/04/02 06:43:08;;;;;;;1.60;1.50;;;19.90;47.30;;;;;;5031028;28;20179;-69
2022/04/02 06:45:50;;;;;;;1.70;1.60;;;19.90;47.30;;;;;;4997897;28;20255;-70
2022/04/02 06:48:16;;;;;;;1.63;1.52;;;19.90;47.30;;;;;;5007670;28;20209;-69
2022/04/02 06:50:43;;;;;;;1.58;1.48;;;19.90;47.30;;;;;;5007945;28;20177;-71
2022/04/02 06:53:09;;;;;;;1.95;1.60;;;19.90;47.30;;;;;;5023450;28;20183;-70
2022/04/02 06:55:35;;;;;;;1.70;1.50;;;19.90;47.30;;;;;;5011401;28;20640;-70
2022/04/02 06:58:01;;;;;;;4.55;1.40;;;19.90;47.20;;;;;;5015921;28;20207;-69
2022/04/02 07:00:28;;;;;;;1.70;1.60;;;19.90;47.20;;;;;;5022500;28;20179;-69
2022/04/02 07:02:54;;;;;;;1.70;1.60;;;19.90;47.20;;;;;;5008205;28;20568;-70
2022/04/02 07:05:20;;;;;;;1.63;1.52;;;19.90;47.20;;;;;;5022667;28;20180;-70
2022/04/02 07:07:47;;;;;;;1.73;1.63;;;19.90;47.20;;;;;;5030395;28;20193;-69
2022/04/02 07:10:13;;;;;;;1.67;1.58;;;19.90;47.30;;;;;;5004292;28;20199;-69
2022/04/02 07:12:39;;;;;;;1.65;1.55;;;19.90;47.20;;;;;;5027394;28;20209;-71
2022/04/02 07:15:07;;;;;;;1.40;1.30;;;19.90;47.30;;;;;;5028300;28;20232;-69
2022/04/02 07:17:34;;;;;;;1.70;1.60;;;20.00;47.30;;;;;;5035372;28;20188;-67
2022/04/02 07:20:01;;;;;;;1.90;1.80;;;19.90;47.20;;;;;;5030555;28;20183;-69
2022/04/02 07:22:27;;;;;;;2.33;1.92;;;20.00;47.30;;;;;;5006962;28;20187;-69
2022/04/02 07:24:56;;;;;;;1.80;1.70;;;19.90;47.20;;;;;;5006099;28;20180;-67
2022/04/02 07:27:27;;;;;;;2.10;1.50;;;19.90;47.00;;;;;;5026649;28;20191;-69
2022/04/02 07:29:55;;;;;;;1.73;1.60;;;19.90;47.10;;;;;;5020996;28;20216;-70
2022/04/02 07:32:21;;;;;;;2.17;1.70;;;20.00;47.30;;;;;;5029828;28;20226;-70
2022/04/02 07:34:47;;;;;;;1.63;1.52;;;20.00;47.20;;;;;;5020228;28;20235;-69
2022/04/02 07:37:40;;;;;;;1.60;1.33;;;20.00;47.20;;;;;;4998913;28;20185;-70
2022/04/02 07:40:19;;;;;;;1.60;1.50;;;20.00;47.20;;;;;;5018530;28;20188;-69
2022/04/02 07:43:10;;;;;;;1.60;1.50;;;20.00;47.30;;;;;;5032160;28;20313;-69
2022/04/02 07:45:46;;;;;;;1.70;1.60;;;20.00;47.20;;;;;;5030096;28;20666;-68
2022/04/02 07:48:16;;;;;;;1.65;1.55;;;20.00;47.10;;;;;;5028328;28;20245;-69
2022/04/02 07:50:45;;;;;;;1.80;1.70;;;20.00;47.10;;;;;;5028933;28;20731;-69
2022/04/02 07:53:25;;;;;;;1.60;1.50;;;20.00;47.10;;;;;;5025452;28;20187;-69
2022/04/02 07:55:57;;;;;;;1.85;1.60;;;20.00;47.10;;;;;;5029611;28;20184;-69
2022/04/02 07:58:32;;;;;;;1.50;1.40;;;20.00;47.70;;;;;;5009150;28;20207;-69
2022/04/02 08:01:04;;;;;;;2.28;1.63;;;20.00;47.10;;;;;;5033859;28;20190;-69
2022/04/02 08:03:34;;;;;;;1.80;1.70;;;20.00;47.10;;;;;;5021935;28;20176;-68
2022/04/02 08:05:59;;;;;;;1.70;1.60;;;20.00;47.00;;;;;;5049973;28;20274;-68
2022/04/02 08:08:26;;;;;;;1.30;1.20;;;20.10;47.10;;;;;;5017289;28;20233;-68
2022/04/02 08:10:53;;;;;;;1.70;1.60;;;20.10;47.10;;;;;;5009283;28;20191;-68
2022/04/02 08:13:20;;;;;;;1.70;1.60;;;20.00;47.60;;;;;;5017023;28;20194;-69
2022/04/02 08:15:46;;;;;;;1.55;1.35;;;20.10;47.10;;;;;;5023048;28;20180;-69
2022/04/02 08:18:20;;;;;;;1.75;1.65;;;20.10;47.10;;;;;;5009357;28;20201;-69
2022/04/02 08:20:49;;;;;;;1.50;1.40;;;20.10;47.10;;;;;;5035948;28;20295;-68
2022/04/02 08:23:15;;;;;;;1.48;1.40;;;20.10;47.10;;;;;;5068898;22;20231;-70
2022/04/02 08:25:56;;;;;;;2.35;1.60;;;20.10;47.10;;;;;;5041196;28;20202;-70
2022/04/02 08:29:27;;;;;;;1.52;1.42;;;20.10;47.10;;;;;;5036555;28;20170;-70
2022/04/02 08:32:04;;;;;;;3.00;1.52;;;20.10;47.10;;;;;;4975127;28;20209;-70
2022/04/02 08:34:50;;;;;;;1.40;1.30;;;20.10;47.00;;;;;;5018226;28;20210;-70
2022/04/02 08:37:49;;;;;;;1.35;1.25;;;20.10;47.10;;;;;;5036083;28;20186;-70
2022/04/02 08:40:36;;;;;;;1.88;1.77;;;20.10;47.00;;;;;;5018575;28;20212;-70
2022/04/02 08:44:20;;;;;;;1.73;1.33;;;20.10;47.10;;;;;;5020032;28;20202;-71
2022/04/02 08:47:39;;;;;;;1.38;1.27;;;20.10;47.00;;;;;;5002372;28;20190;-70
2022/04/02 08:50:16;;;;;;;1.45;1.35;;;20.10;47.00;;;;;;5015939;28;20183;-70
2022/04/02 08:53:39;;;;;;;1.23;1.20;;;20.20;47.10;;;;;;5024444;28;20202;-71
2022/04/02 08:56:09;;;;;;;1.52;1.40;;;20.20;47.00;;;;;;5013093;28;20226;-71
2022/04/02 08:59:01;;;;;;;1.52;1.40;;;20.20;47.00;;;;;;5020899;28;20179;-71
2022/04/02 09:02:23;;;;;;;1.65;1.30;;;20.20;47.10;;;;;;5018585;28;20268;-70
2022/04/02 09:04:55;;;;;;;2.25;1.48;;;20.20;47.00;;;;;;5038997;28;20230;-71
2022/04/02 09:07:47;;;;;;;1.65;1.55;;;20.20;47.00;;;;;;5012668;28;20184;-71
2022/04/02 09:10:59;;;;;;;1.40;1.30;;;20.20;47.00;;;;;;5028844;28;20275;-70
2022/04/02 09:14:08;;;;;;;1.40;1.30;;;20.20;47.00;;;;;;5031783;28;20207;-70
2022/04/02 09:17:15;;;;;;;1.48;1.38;;;20.20;46.90;;;;;;5027902;28;20178;-71
2022/04/02 09:20:20;;;;;;;1.52;1.42;;;20.30;47.00;;;;;;5035016;28;20638;-71
2022/04/02 09:23:32;;;;;;;1.50;1.40;;;20.30;47.00;;;;;;5022986;28;20214;-71
2022/04/02 09:26:54;;;;;;;1.70;1.50;;;20.30;47.00;;;;;;5045842;28;20197;-70
2022/04/02 09:29:36;;;;;;;2.22;1.48;;;20.30;47.00;;;;;;5021945;28;20275;-72
2022/04/02 09:32:32;;;;;;;1.10;1.10;;;20.30;46.90;;;;;;5005023;28;20182;-71
2022/04/02 09:35:54;;;;;;;1.40;1.13;;;20.30;47.00;;;;;;5026699;28;20214;-71
2022/04/02 09:38:59;;;;;;;1.20;1.10;;;20.30;46.90;;;;;;5036961;28;20188;-71
2022/04/02 09:41:58;;;;;;;1.35;1.25;;;20.30;47.00;;;;;;4998295;28;20191;-71
2022/04/02 09:45:04;;;;;;;1.30;1.20;;;20.30;46.90;;;;;;5018101;28;20207;-71
2022/04/02 09:48:14;;;;;;;3.90;1.38;;;20.30;46.90;;;;;;5011913;28;20176;-71
2022/04/02 09:50:42;;;;;;;1.50;1.40;;;20.30;46.90;;;;;;5036998;28;20191;-71
2022/04/02 09:53:24;;;;;;;1.63;1.52;;;20.30;46.90;;;;;;5014758;28;20305;-71
2022/04/02 09:56:22;;;;;;;1.65;1.55;;;20.30;46.90;;;;;;5023245;28;20257;-71
2022/04/02 09:59:09;;;;;;;1.77;1.67;;;20.30;46.80;;;;;;5048734;28;20175;-71
2022/04/02 10:01:55;;;;;;;1.33;1.27;;;20.30;46.80;;;;;;5004360;28;20241;-72
2022/04/02 10:04:50;;;;;;;1.30;1.20;;;20.30;46.80;;;;;;5023709;28;20219;-70
2022/04/02 10:08:02;;;;;;;1.75;1.60;;;20.30;46.80;;;;;;5034909;28;20183;-71
2022/04/02 10:10:30;;;;;;;1.77;1.67;;;20.30;46.70;;;;;;5025941;28;20183;-71
2022/04/02 10:12:57;;;;;;;1.52;1.42;;;20.30;46.80;;;;;;5046180;28;20255;-71
2022/04/02 10:15:24;;;;;;;1.63;1.52;;;20.30;46.80;;;;;;5025838;28;20340;-70
2022/04/02 10:17:53;;;;;;;1.60;1.50;;;20.40;46.80;;;;;;5042508;28;20728;-72
2022/04/02 10:20:29;;;;;;;1.50;1.40;;;20.40;46.80;;;;;;5023589;28;20619;-72
2022/04/02 10:23:20;;;;;;;1.40;1.30;;;20.40;46.80;;;;;;5024339;28;20214;-71
2022/04/02 10:26:17;;;;;;;1.48;1.38;;;20.40;46.80;;;;;;5022466;28;20180;-71
2022/04/02 10:29:02;;;;;;;1.65;1.55;;;20.40;46.80;;;;;;5002237;28;20206;-71
2022/04/02 10:31:42;;;;;;;1.50;1.40;;;20.40;46.80;;;;;;5039745;28;20187;-71
2022/04/02 10:34:33;;;;;;;1.77;1.40;;;20.40;46.80;;;;;;5032042;28;20230;-71
2022/04/02 10:37:12;;;;;;;1.42;1.33;;;20.40;46.80;;;;;;5011975;28;20543;-71
2022/04/02 10:39:53;;;;;;;1.42;1.33;;;20.40;46.80;;;;;;5042501;28;20170;-71
2022/04/02 10:42:32;;;;;;;1.67;1.58;;;20.40;46.80;;;;;;5017823;28;20167;-71
2022/04/02 10:45:02;;;;;;;1.50;1.25;;;20.40;46.80;;;;;;5015030;28;20188;-71
2022/04/02 10:47:30;;;;;;;3.35;1.50;;;20.40;46.80;;;;;;5014728;28;20190;-70
2022/04/02 10:50:05;;;;;;;1.95;1.50;;;20.40;46.80;;;;;;5016529;28;20232;-71
2022/04/02 10:52:31;;;;;;;1.30;1.30;;;20.40;46.80;;;;;;5017667;28;20182;-70
2022/04/02 10:54:58;;;;;;;1.20;1.20;;;20.40;46.80;;;;;;5034243;28;20275;-72
2022/04/02 10:57:28;;;;;;;1.38;1.27;;;20.40;46.80;;;;;;5027653;28;20186;-71
2022/04/02 11:00:10;;;;;;;1.80;1.70;;;20.50;46.90;;;;;;5024183;28;20725;-69
2022/04/02 11:02:42;;;;;;;1.50;1.40;;;20.50;46.90;;;;;;5016216;28;20180;-71
2022/04/02 11:05:16;;;;;;;1.40;1.30;;;20.50;46.90;;;;;;5015074;28;20187;-70
2022/04/02 11:07:49;;;;;;;1.75;1.38;;;20.50;46.90;;;;;;5014400;28;20187;-71
2022/04/02 11:10:19;;;;;;;1.55;1.45;;;20.50;46.90;;;;;;5014374;28;20271;-71
2022/04/02 11:12:48;;;;;;;1.48;1.38;;;20.50;46.90;;;;;;5031840;28;20654;-71
2022/04/02 11:15:19;;;;;;;1.52;1.17;;;20.50;46.90;;;;;;5018012;28;20661;-71
2022/04/02 11:17:48;;;;;;;1.50;1.40;;;20.50;46.90;;;;;;5014922;28;20184;-71
2022/04/02 11:20:20;;;;;;;1.65;1.60;;;20.50;46.90;;;;;;5027549;28;20542;-72
2022/04/02 11:22:51;;;;;;;1.30;1.20;;;20.50;46.90;;;;;;5034382;28;20270;-71
2022/04/02 11:25:35;;;;;;;1.55;1.45;;;20.50;46.90;;;;;;5021072;28;20274;-71
2022/04/02 11:28:15;;;;;;;1.58;1.48;;;20.60;47.00;;;;;;5028188;28;20183;-71
2022/04/02 11:30:49;;;;;;;1.50;1.40;;;20.50;46.90;;;;;;5034872;28;20577;-71
2022/04/02 11:33:26;;;;;;;1.40;1.30;;;20.50;46.90;;;;;;5046728;28;20206;-71
2022/04/02 11:35:53;;;;;;;1.40;1.30;;;20.50;46.90;;;;;;5036878;28;20211;-71
2022/04/02 11:38:20;;;;;;;1.70;1.60;;;20.50;46.90;;;;;;5033847;28;20187;-70
2022/04/02 11:41:23;;;;;;;1.50;1.40;;;20.50;46.90;;;;;;5034291;28;20183;-71
2022/04/02 11:44:02;;;;;;;1.75;1.65;;;20.50;46.90;;;;;;5033570;28;20213;-71
2022/04/02 11:46:28;;;;;;;1.83;1.73;;;20.50;46.90;;;;;;5027835;28;20183;-71
2022/04/02 11:48:58;;;;;;;1.80;1.60;;;20.50;46.90;;;;;;5033477;28;20199;-71
2022/04/02 11:51:30;;;;;;;1.38;1.27;;;20.50;46.90;;;;;;5030490;28;20184;-71
2022/04/02 11:54:02;;;;;;;2.13;1.88;;;20.50;46.90;;;;;;5020661;28;20217;-71
2022/04/02 11:56:29;;;;;;;1.40;1.30;;;20.50;47.00;;;;;;5050358;28;20191;-70
2022/04/02 11:59:07;;;;;;;1.98;1.50;;;20.60;47.00;;;;;;5027316;28;20199;-71
2022/04/02 12:01:50;;;;;;;1.60;1.50;;;20.50;46.90;;;;;;5037205;28;20187;-70
2022/04/02 12:04:25;;;;;;;1.40;1.30;;;20.60;47.00;;;;;;5036754;28;20293;-71
2022/04/02 12:06:54;;;;;;;1.60;1.50;;;20.50;46.90;;;;;;5034254;28;20548;-71
2022/04/02 12:09:25;;;;;;;1.70;1.60;;;20.60;46.80;;;;;;5017097;28;20266;-71
2022/04/02 12:12:04;;;;;;;1.80;1.70;;;20.50;46.80;;;;;;5033478;28;20183;-70
2022/04/02 12:14:38;;;;;;;2.03;1.92;;;20.60;46.90;;;;;;5020595;28;20216;-70
2022/04/02 12:17:14;;;;;;;1.70;1.60;;;20.50;46.80;;;;;;5017434;28;20179;-70
2022/04/02 12:19:51;;;;;;;1.73;1.40;;;20.60;47.00;;;;;;4998131;28;20190;-70
2022/04/02 12:22:31;;;;;;;1.75;1.58;;;20.50;46.90;;;;;;5030096;28;20194;-71
2022/04/02 12:25:01;;;;;;;1.60;1.50;;;20.60;47.00;;;;;;5031862;28;20199;-71
2022/04/02 12:27:33;;;;;;;1.52;1.42;;;20.50;46.80;;;;;;5035878;28;20192;-71
2022/04/02 12:30:08;;;;;;;1.35;1.30;;;20.50;46.80;;;;;;4996783;28;20173;-70
2022/04/02 12:32:42;;;;;;;1.50;1.40;;;20.60;46.90;;;;;;5029841;28;20184;-70
2022/04/02 12:35:21;;;;;;;1.88;1.50;;;20.60;47.00;;;;;;5048303;28;20207;-70
2022/04/02 12:37:52;;;;;;;2.33;1.55;;;20.60;47.00;;;;;;5034066;28;20175;-71
2022/04/02 12:40:26;;;;;;;1.67;1.58;;;20.50;46.90;;;;;;5032875;28;20175;-70
2022/04/02 12:43:09;;;;;;;1.70;1.60;;;20.60;47.00;;;;;;5032468;28;20584;-71
2022/04/02 12:45:36;;;;;;;1.70;1.60;;;20.60;47.00;;;;;;5018941;28;20179;-70
2022/04/02 12:48:20;;;;;;;1.83;1.73;;;20.50;46.90;;;;;;5025840;28;20188;-70
2022/04/02 12:51:00;;;;;;;1.55;1.23;;;20.50;46.90;;;;;;5019943;28;20258;-70
2022/04/02 12:53:35;;;;;;;1.70;1.60;;;20.50;46.90;;;;;;5023909;28;20211;-70
2022/04/02 12:56:08;;;;;;;1.15;1.15;;;20.60;47.00;;;;;;5016128;28;20269;-70
2022/04/02 12:58:40;;;;;;;1.73;1.63;;;20.50;46.90;;;;;;5015829;28;20293;-70
2022/04/02 13:01:32;;;;;;;1.60;1.50;;;20.60;47.00;;;;;;5010045;28;20187;-70
2022/04/02 13:04:01;;;;;;;1.85;1.75;;;20.60;47.00;;;;;;5018478;28;20352;-70
2022/04/02 13:06:30;;;;;;;1.50;1.40;;;20.60;47.00;;;;;;5035742;28;20229;-71
2022/04/02 13:09:04;;;;;;;1.70;1.60;;;20.60;47.00;;;;;;5029661;28;20257;-70
2022/04/02 13:12:04;;;;;;;2.58;1.35;;;20.60;47.00;;;;;;5031839;28;20179;-71
2022/04/02 13:14:33;;;;;;;1.63;1.52;;;20.60;47.00;;;;;;5034331;28;20238;-71
2022/04/02 13:17:19;;;;;;;1.35;1.33;;;20.60;47.00;;;;;;5026194;28;20178;-71
2022/04/02 13:22:53;;;;;;;1.52;1.42;;;20.50;46.90;;;;;;5020459;28;20186;-71
2022/04/02 13:25:29;;;;;;;1.60;1.50;;;20.50;46.90;;;;;;5038576;28;20275;-71
2022/04/02 13:28:28;;;;;;;1.77;1.67;;;20.50;46.90;;;;;;4993483;28;20270;-70
2022/04/02 13:31:00;;;;;;;1.50;1.40;;;20.60;47.00;;;;;;5010086;28;20250;-71